Dogue, Virginia
Current Conditions -  °F | °C
As of 3:55 PM on Friday 19 Dec 2014 (Local Time) from KEZF Reporting Station
Clear Clear  
Wind Chill: 38°   Ceiling: Unl
Heat Index: 41°   Visibility: 10mi
Dew Point: 26°   Wind: 6mph
Humidity: 53%   Direction: 330°NNW
Pressure: 30.17"   Gusts: NA
Location:  38.23°N, 77.22°W
Report Text: KEZF 192055Z AUTO 33005KT 10SM CLR 05/M04 A3017 RMK AO2 T00521036
Loading
Personal Weather Stations






























Interactive Weather Map New forecast layout! Learn more

10-Day Weather Forecast

Advertisements
Track Severe Weather on mobile